sensor_id;sensor_type;location;lat;lon;timestamp;pressure;altitude;pressure_sealevel;temperature;humidity
66742;BME280;53654;54.152;19.432;2023-08-12T00:00:23;102186.92;;;15.05;72.48
66742;BME280;53654;54.152;19.432;2023-08-12T00:03:11;102187.83;;;14.98;72.65
66742;BME280;53654;54.152;19.432;2023-08-12T00:05:40;102188.54;;;14.95;73.04
66742;BME280;53654;54.152;19.432;2023-08-12T00:08:09;102187.67;;;14.92;73.30
66742;BME280;53654;54.152;19.432;2023-08-12T00:10:37;102188.91;;;14.90;73.44
66742;BME280;53654;54.152;19.432;2023-08-12T00:13:05;102188.56;;;14.88;73.44
66742;BME280;53654;54.152;19.432;2023-08-12T00:15:33;102182.77;;;14.84;73.25
66742;BME280;53654;54.152;19.432;2023-08-12T00:18:01;102182.09;;;14.80;72.95
66742;BME280;53654;54.152;19.432;2023-08-12T00:20:32;102183.33;;;14.78;73.00
66742;BME280;53654;54.152;19.432;2023-08-12T00:23:00;102182.27;;;14.75;72.74
66742;BME280;53654;54.152;19.432;2023-08-12T00:25:28;102181.94;;;14.73;72.76
66742;BME280;53654;54.152;19.432;2023-08-12T00:27:56;102178.61;;;14.71;73.18
66742;BME280;53654;54.152;19.432;2023-08-12T00:30:25;102177.73;;;14.70;73.65
66742;BME280;53654;54.152;19.432;2023-08-12T00:32:53;102175.80;;;14.68;73.74
66742;BME280;53654;54.152;19.432;2023-08-12T00:35:21;102175.64;;;14.66;73.98
66742;BME280;53654;54.152;19.432;2023-08-12T00:37:49;102179.16;;;14.63;74.12
66742;BME280;53654;54.152;19.432;2023-08-12T00:40:17;102179.51;;;14.60;74.30
66742;BME280;53654;54.152;19.432;2023-08-12T00:42:46;102180.39;;;14.58;74.54
66742;BME280;53654;54.152;19.432;2023-08-12T00:45:14;102181.27;;;14.55;74.53
66742;BME280;53654;54.152;19.432;2023-08-12T00:47:43;102181.64;;;14.54;74.62
66742;BME280;53654;54.152;19.432;2023-08-12T00:50:12;102183.40;;;14.51;74.49
66742;BME280;53654;54.152;19.432;2023-08-12T00:52:42;102185.68;;;14.49;74.66
66742;BME280;53654;54.152;19.432;2023-08-12T00:55:13;102180.59;;;14.45;74.64
66742;BME280;53654;54.152;19.432;2023-08-12T00:57:42;102179.02;;;14.45;75.01
66742;BME280;53654;54.152;19.432;2023-08-12T01:00:11;102181.66;;;14.42;75.17
66742;BME280;53654;54.152;19.432;2023-08-12T01:02:43;102178.64;;;14.40;75.13
66742;BME280;53654;54.152;19.432;2023-08-12T01:05:14;102180.58;;;14.38;75.15
66742;BME280;53654;54.152;19.432;2023-08-12T01:07:43;102175.66;;;14.34;74.89
66742;BME280;53654;54.152;19.432;2023-08-12T01:10:14;102179.54;;;14.32;75.09
66742;BME280;53654;54.152;19.432;2023-08-12T01:15:15;102178.31;;;14.28;75.37
66742;BME280;53654;54.152;19.432;2023-08-12T01:17:45;102172.70;;;14.26;75.29
66742;BME280;53654;54.152;19.432;2023-08-12T01:20:15;102175.50;;;14.25;75.56
66742;BME280;53654;54.152;19.432;2023-08-12T01:22:44;102178.84;;;14.22;75.62
66742;BME280;53654;54.152;19.432;2023-08-12T01:25:14;102181.29;;;14.19;75.85
66742;BME280;53654;54.152;19.432;2023-08-12T01:27:42;102179.02;;;14.18;75.63
66742;BME280;53654;54.152;19.432;2023-08-12T01:30:11;102182.52;;;14.17;75.67
66742;BME280;53654;54.152;19.432;2023-08-12T01:35:20;102183.40;;;14.11;76.12
66742;BME280;53654;54.152;19.432;2023-08-12T01:37:51;102187.45;;;14.09;76.37
66742;BME280;53654;54.152;19.432;2023-08-12T01:40:22;102181.84;;;14.08;76.17
66742;BME280;53654;54.152;19.432;2023-08-12T01:42:51;102181.13;;;14.06;76.40
66742;BME280;53654;54.152;19.432;2023-08-12T01:45:20;102183.41;;;14.06;76.70
66742;BME280;53654;54.152;19.432;2023-08-12T01:47:48;102181.13;;;14.04;76.31
66742;BME280;53654;54.152;19.432;2023-08-12T01:50:19;102180.77;;;14.03;75.51
66742;BME280;53654;54.152;19.432;2023-08-12T01:52:49;102184.29;;;14.03;75.33
66742;BME280;53654;54.152;19.432;2023-08-12T01:55:17;102186.92;;;14.04;75.79
66742;BME280;53654;54.152;19.432;2023-08-12T01:57:45;102182.52;;;14.05;75.73
66742;BME280;53654;54.152;19.432;2023-08-12T02:00:15;102185.34;;;14.06;75.95
66742;BME280;53654;54.152;19.432;2023-08-12T02:02:43;102187.45;;;14.06;75.57
66742;BME280;53654;54.152;19.432;2023-08-12T02:05:15;102189.02;;;14.07;75.18
66742;BME280;53654;54.152;19.432;2023-08-12T02:07:43;102190.61;;;14.09;75.78
66742;BME280;53654;54.152;19.432;2023-08-12T02:10:12;102183.40;;;14.10;75.60
66742;BME280;53654;54.152;19.432;2023-08-12T02:12:42;102182.70;;;14.11;75.20
66742;BME280;53654;54.152;19.432;2023-08-12T02:15:12;102180.60;;;14.10;74.58
66742;BME280;53654;54.152;19.432;2023-08-12T02:17:40;102179.02;;;14.11;74.18
66742;BME280;53654;54.152;19.432;2023-08-12T02:20:08;102173.41;;;14.10;74.15
66742;BME280;53654;54.152;19.432;2023-08-12T02:22:36;102176.73;;;14.13;74.71
66742;BME280;53654;54.152;19.432;2023-08-12T02:25:05;102178.85;;;14.13;74.51
66742;BME280;53654;54.152;19.432;2023-08-12T02:27:34;102179.02;;;14.12;74.50
66742;BME280;53654;54.152;19.432;2023-08-12T02:30:03;102173.23;;;14.10;74.71
66742;BME280;53654;54.152;19.432;2023-08-12T02:32:31;102170.25;;;14.09;74.65
66742;BME280;53654;54.152;19.432;2023-08-12T02:35:00;102172.54;;;14.07;74.42
66742;BME280;53654;54.152;19.432;2023-08-12T02:37:28;102169.20;;;14.04;74.37
66742;BME280;53654;54.152;19.432;2023-08-12T02:39:56;102169.20;;;14.02;74.62
66742;BME280;53654;54.152;19.432;2023-08-12T02:42:24;102170.42;;;14.01;74.84
66742;BME280;53654;54.152;19.432;2023-08-12T02:44:53;102176.39;;;14.01;75.03
66742;BME280;53654;54.152;19.432;2023-08-12T02:47:21;102176.21;;;14.03;75.37
66742;BME280;53654;54.152;19.432;2023-08-12T02:49:50;102174.64;;;14.05;75.42
66742;BME280;53654;54.152;19.432;2023-08-12T02:52:18;102176.39;;;14.06;75.40
66742;BME280;53654;54.152;19.432;2023-08-12T02:54:46;102184.11;;;14.10;75.15
66742;BME280;53654;54.152;19.432;2023-08-12T02:57:14;102178.49;;;14.12;75.09
66742;BME280;53654;54.152;19.432;2023-08-12T02:59:42;102179.37;;;14.16;75.29
66742;BME280;53654;54.152;19.432;2023-08-12T03:02:10;102180.42;;;14.19;75.15
66742;BME280;53654;54.152;19.432;2023-08-12T03:04:39;102180.77;;;14.21;74.72
66742;BME280;53654;54.152;19.432;2023-08-12T03:07:07;102190.08;;;14.24;74.85
66742;BME280;53654;54.152;19.432;2023-08-12T03:09:35;102190.24;;;14.25;74.96
66742;BME280;53654;54.152;19.432;2023-08-12T03:12:04;102192.70;;;14.28;74.97
66742;BME280;53654;54.152;19.432;2023-08-12T03:14:32;102190.41;;;14.29;75.12
66742;BME280;53654;54.152;19.432;2023-08-12T03:17:01;102189.89;;;14.31;75.11
66742;BME280;53654;54.152;19.432;2023-08-12T03:19:33;102188.66;;;14.33;75.09
66742;BME280;53654;54.152;19.432;2023-08-12T03:22:02;102189.00;;;14.37;75.27
66742;BME280;53654;54.152;19.432;2023-08-12T03:24:31;102187.79;;;14.41;75.64
66742;BME280;53654;54.152;19.432;2023-08-12T03:26:59;102184.63;;;14.45;75.61
66742;BME280;53654;54.152;19.432;2023-08-12T03:29:29;102178.31;;;14.50;75.79
66742;BME280;53654;54.152;19.432;2023-08-12T03:31:58;102176.55;;;14.53;75.65
66742;BME280;53654;54.152;19.432;2023-08-12T03:34:28;102180.58;;;14.57;75.65
66742;BME280;53654;54.152;19.432;2023-08-12T03:36:58;102180.21;;;14.60;75.22
66742;BME280;53654;54.152;19.432;2023-08-12T03:39:27;102178.45;;;14.63;75.49
66742;BME280;53654;54.152;19.432;2023-08-12T03:41:56;102179.84;;;14.69;75.45
66742;BME280;53654;54.152;19.432;2023-08-12T03:44:24;102180.71;;;14.74;75.18
66742;BME280;53654;54.152;19.432;2023-08-12T03:46:52;102182.27;;;14.79;75.16
66742;BME280;53654;54.152;19.432;2023-08-12T03:49:20;102182.08;;;14.84;74.97
66742;BME280;53654;54.152;19.432;2023-08-12T03:51:49;102177.14;;;14.91;74.96
66742;BME280;53654;54.152;19.432;2023-08-12T03:54:18;102177.11;;;14.97;75.04
66742;BME280;53654;54.152;19.432;2023-08-12T03:56:46;102171.64;;;15.02;74.75
66742;BME280;53654;54.152;19.432;2023-08-12T03:59:14;102175.64;;;15.12;74.58
66742;BME280;53654;54.152;19.432;2023-08-12T04:01:42;102176.66;;;15.19;74.52
66742;BME280;53654;54.152;19.432;2023-08-12T04:04:11;102178.02;;;15.28;75.02
66742;BME280;53654;54.152;19.432;2023-08-12T04:06:41;102180.79;;;15.37;74.97
66742;BME280;53654;54.152;19.432;2023-08-12T04:09:09;102182.49;;;15.46;74.91
66742;BME280;53654;54.152;19.432;2023-08-12T04:11:37;102180.34;;;15.55;74.94
66742;BME280;53654;54.152;19.432;2023-08-12T04:14:06;102182.43;;;15.65;74.40
66742;BME280;53654;54.152;19.432;2023-08-12T04:16:34;102180.44;;;15.74;74.05
66742;BME280;53654;54.152;19.432;2023-08-12T04:19:03;102181.79;;;15.83;73.40
66742;BME280;53654;54.152;19.432;2023-08-12T04:21:31;102176.45;;;15.90;72.57
66742;BME280;53654;54.152;19.432;2023-08-12T04:24:00;102176.04;;;15.97;71.44
66742;BME280;53654;54.152;19.432;2023-08-12T04:26:28;102172.98;;;16.04;71.32
66742;BME280;53654;54.152;19.432;2023-08-12T04:28:56;102172.22;;;16.11;72.33
66742;BME280;53654;54.152;19.432;2023-08-12T04:31:24;102173.39;;;16.18;71.97
66742;BME280;53654;54.152;19.432;2023-08-12T04:33:53;102174.23;;;16.24;71.48
66742;BME280;53654;54.152;19.432;2023-08-12T04:36:22;102179.44;;;16.31;70.45
66742;BME280;53654;54.152;19.432;2023-08-12T04:38:50;102173.20;;;16.38;70.05
66742;BME280;53654;54.152;19.432;2023-08-12T04:41:18;102171.86;;;16.48;69.84
66742;BME280;53654;54.152;19.432;2023-08-12T04:43:47;102170.88;;;16.60;70.10
66742;BME280;53654;54.152;19.432;2023-08-12T04:46:16;102168.27;;;16.73;70.11
66742;BME280;53654;54.152;19.432;2023-08-12T04:48:45;102167.19;;;16.91;69.25
66742;BME280;53654;54.152;19.432;2023-08-12T04:51:14;102164.45;;;17.11;68.46
66742;BME280;53654;54.152;19.432;2023-08-12T04:53:43;102168.63;;;17.42;67.55
66742;BME280;53654;54.152;19.432;2023-08-12T04:56:11;102166.51;;;17.78;66.14
66742;BME280;53654;54.152;19.432;2023-08-12T04:58:40;102166.85;;;18.11;65.19
66742;BME280;53654;54.152;19.432;2023-08-12T05:01:08;102165.40;;;18.52;64.35
66742;BME280;53654;54.152;19.432;2023-08-12T05:03:37;102163.95;;;18.99;62.96
66742;BME280;53654;54.152;19.432;2023-08-12T05:06:06;102164.33;;;19.38;61.05
66742;BME280;53654;54.152;19.432;2023-08-12T05:08:34;102165.21;;;19.92;59.45
66742;BME280;53654;54.152;19.432;2023-08-12T05:11:03;102164.59;;;20.43;58.07
66742;BME280;53654;54.152;19.432;2023-08-12T05:13:31;102164.95;;;20.89;56.04
66742;BME280;53654;54.152;19.432;2023-08-12T05:16:01;102168.63;;;21.09;55.17
66742;BME280;53654;54.152;19.432;2023-08-12T05:18:29;102164.66;;;21.16;54.38
66742;BME280;53654;54.152;19.432;2023-08-12T05:20:57;102160.42;;;21.22;53.80
66742;BME280;53654;54.152;19.432;2023-08-12T05:23:26;102155.27;;;21.23;53.64
66742;BME280;53654;54.152;19.432;2023-08-12T05:25:54;102155.84;;;21.21;53.24
66742;BME280;53654;54.152;19.432;2023-08-12T05:28:40;102155.27;;;21.16;53.11
66742;BME280;53654;54.152;19.432;2023-08-12T05:31:08;102154.30;;;21.13;52.75
66742;BME280;53654;54.152;19.432;2023-08-12T05:33:36;102153.81;;;21.12;53.12
66742;BME280;53654;54.152;19.432;2023-08-12T05:36:04;102156.66;;;21.17;53.16
66742;BME280;53654;54.152;19.432;2023-08-12T05:38:33;102154.56;;;21.23;52.22
66742;BME280;53654;54.152;19.432;2023-08-12T05:41:01;102151.74;;;21.21;51.90
66742;BME280;53654;54.152;19.432;2023-08-12T05:43:29;102150.44;;;21.17;51.74
66742;BME280;53654;54.152;19.432;2023-08-12T05:45:57;102146.39;;;21.11;51.69
66742;BME280;53654;54.152;19.432;2023-08-12T05:48:25;102146.70;;;21.06;52.02
66742;BME280;53654;54.152;19.432;2023-08-12T05:50:53;102150.64;;;21.05;52.23
66742;BME280;53654;54.152;19.432;2023-08-12T05:53:22;102150.52;;;21.10;52.39
66742;BME280;53654;54.152;19.432;2023-08-12T05:55:50;102144.79;;;21.17;52.13
66742;BME280;53654;54.152;19.432;2023-08-12T05:58:18;102143.24;;;21.33;52.06
66742;BME280;53654;54.152;19.432;2023-08-12T06:00:46;102140.26;;;21.54;51.96
66742;BME280;53654;54.152;19.432;2023-08-12T06:03:14;102139.96;;;21.96;51.05
66742;BME280;53654;54.152;19.432;2023-08-12T06:05:45;102141.85;;;22.73;50.01
66742;BME280;53654;54.152;19.432;2023-08-12T06:08:14;102142.03;;;23.56;47.73
66742;BME280;53654;54.152;19.432;2023-08-12T06:10:42;102138.09;;;24.20;45.68
66742;BME280;53654;54.152;19.432;2023-08-12T06:13:10;102138.27;;;24.48;44.72
66742;BME280;53654;54.152;19.432;2023-08-12T06:15:38;102134.06;;;24.66;44.11
66742;BME280;53654;54.152;19.432;2023-08-12T06:18:07;102135.38;;;24.81;43.59
66742;BME280;53654;54.152;19.432;2023-08-12T06:20:35;102135.89;;;24.93;43.38
66742;BME280;53654;54.152;19.432;2023-08-12T06:23:03;102142.04;;;25.18;42.78
66742;BME280;53654;54.152;19.432;2023-08-12T06:25:32;102133.68;;;25.50;42.20
66742;BME280;53654;54.152;19.432;2023-08-12T06:28:00;102131.45;;;25.78;42.30
66742;BME280;53654;54.152;19.432;2023-08-12T06:30:29;102133.22;;;26.07;42.05
66742;BME280;53654;54.152;19.432;2023-08-12T06:32:57;102131.63;;;26.31;41.02
66742;BME280;53654;54.152;19.432;2023-08-12T06:35:25;102130.29;;;26.52;40.57
66742;BME280;53654;54.152;19.432;2023-08-12T06:37:54;102125.70;;;26.65;39.86
66742;BME280;53654;54.152;19.432;2023-08-12T06:40:22;102125.38;;;26.54;40.11
66742;BME280;53654;54.152;19.432;2023-08-12T06:42:52;102123.86;;;26.25;40.60
66742;BME280;53654;54.152;19.432;2023-08-12T06:45:20;102121.41;;;26.03;40.93
66742;BME280;53654;54.152;19.432;2023-08-12T06:47:48;102121.71;;;25.86;40.23
66742;BME280;53654;54.152;19.432;2023-08-12T06:50:17;102121.34;;;25.69;40.55
66742;BME280;53654;54.152;19.432;2023-08-12T06:52:46;102120.55;;;25.52;41.38
66742;BME280;53654;54.152;19.432;2023-08-12T06:55:16;102123.06;;;25.37;41.77
66742;BME280;53654;54.152;19.432;2023-08-12T06:57:45;102123.17;;;25.24;42.59
66742;BME280;53654;54.152;19.432;2023-08-12T07:00:16;102119.81;;;25.05;43.32
66742;BME280;53654;54.152;19.432;2023-08-12T07:02:46;102112.63;;;24.83;43.63
66742;BME280;53654;54.152;19.432;2023-08-12T07:05:15;102105.27;;;24.68;43.84
66742;BME280;53654;54.152;19.432;2023-08-12T07:07:43;102101.64;;;24.54;44.25
66742;BME280;53654;54.152;19.432;2023-08-12T07:10:12;102103.91;;;24.43;44.78
66742;BME280;53654;54.152;19.432;2023-08-12T07:12:41;102102.22;;;24.33;44.80
66742;BME280;53654;54.152;19.432;2023-08-12T07:15:14;102102.30;;;24.32;45.56
66742;BME280;53654;54.152;19.432;2023-08-12T07:17:42;102099.88;;;24.30;45.54
66742;BME280;53654;54.152;19.432;2023-08-12T07:20:11;102102.02;;;24.30;45.93
66742;BME280;53654;54.152;19.432;2023-08-12T07:22:40;102098.63;;;24.26;46.19
66742;BME280;53654;54.152;19.432;2023-08-12T07:25:12;102101.67;;;24.21;46.42
66742;BME280;53654;54.152;19.432;2023-08-12T07:27:40;102099.47;;;24.19;47.05
66742;BME280;53654;54.152;19.432;2023-08-12T07:30:10;102100.97;;;24.17;46.86
66742;BME280;53654;54.152;19.432;2023-08-12T07:32:39;102097.32;;;24.19;47.43
66742;BME280;53654;54.152;19.432;2023-08-12T07:35:08;102095.86;;;24.20;47.21
66742;BME280;53654;54.152;19.432;2023-08-12T07:37:37;102097.26;;;24.20;47.91
66742;BME280;53654;54.152;19.432;2023-08-12T07:40:06;102100.62;;;24.17;47.12
66742;BME280;53654;54.152;19.432;2023-08-12T07:42:42;102103.59;;;24.14;47.16
66742;BME280;53654;54.152;19.432;2023-08-12T07:45:10;102102.91;;;24.09;47.00
66742;BME280;53654;54.152;19.432;2023-08-12T07:47:39;102100.98;;;24.00;47.10
66742;BME280;53654;54.152;19.432;2023-08-12T07:50:08;102099.91;;;23.92;47.81
66742;BME280;53654;54.152;19.432;2023-08-12T07:52:36;102097.44;;;23.91;48.18
66742;BME280;53654;54.152;19.432;2023-08-12T07:55:05;102096.89;;;23.92;47.67
66742;BME280;53654;54.152;19.432;2023-08-12T07:57:34;102094.21;;;23.92;47.85
66742;BME280;53654;54.152;19.432;2023-08-12T08:00:03;102092.38;;;23.93;47.76
66742;BME280;53654;54.152;19.432;2023-08-12T08:02:32;102085.23;;;23.93;48.29
66742;BME280;53654;54.152;19.432;2023-08-12T08:05:02;102081.08;;;23.99;48.40
66742;BME280;53654;54.152;19.432;2023-08-12T08:07:31;102082.33;;;24.06;47.96
66742;BME280;53654;54.152;19.432;2023-08-12T08:10:00;102079.71;;;24.14;48.13
66742;BME280;53654;54.152;19.432;2023-08-12T08:12:30;102079.27;;;24.20;48.16
66742;BME280;53654;54.152;19.432;2023-08-12T08:14:58;102076.70;;;24.30;46.26
66742;BME280;53654;54.152;19.432;2023-08-12T08:17:28;102074.20;;;24.42;45.73
66742;BME280;53654;54.152;19.432;2023-08-12T08:19:58;102072.83;;;24.49;44.30
66742;BME280;53654;54.152;19.432;2023-08-12T08:22:26;102066.38;;;24.56;44.33
66742;BME280;53654;54.152;19.432;2023-08-12T08:24:59;102070.20;;;24.66;42.86
66742;BME280;53654;54.152;19.432;2023-08-12T08:27:28;102066.32;;;24.77;42.86
66742;BME280;53654;54.152;19.432;2023-08-12T08:29:56;102063.58;;;24.90;43.67
66742;BME280;53654;54.152;19.432;2023-08-12T08:32:25;102065.61;;;25.00;42.60
66742;BME280;53654;54.152;19.432;2023-08-12T08:34:55;102065.81;;;25.03;41.99
66742;BME280;53654;54.152;19.432;2023-08-12T08:37:24;102065.83;;;25.06;42.12
66742;BME280;53654;54.152;19.432;2023-08-12T08:39:52;102068.77;;;25.12;41.77
66742;BME280;53654;54.152;19.432;2023-08-12T08:42:24;102069.70;;;25.08;39.98
66742;BME280;53654;54.152;19.432;2023-08-12T08:44:57;102060.92;;;25.05;41.03
66742;BME280;53654;54.152;19.432;2023-08-12T08:47:27;102060.68;;;25.10;40.21
66742;BME280;53654;54.152;19.432;2023-08-12T08:49:56;102061.58;;;25.13;39.88
66742;BME280;53654;54.152;19.432;2023-08-12T08:52:25;102059.25;;;25.14;39.60
66742;BME280;53654;54.152;19.432;2023-08-12T08:54:55;102056.19;;;25.14;39.19
66742;BME280;53654;54.152;19.432;2023-08-12T08:57:29;102054.55;;;25.11;39.11
66742;BME280;53654;54.152;19.432;2023-08-12T09:00:06;102047.17;;;25.12;39.41
66742;BME280;53654;54.152;19.432;2023-08-12T09:02:46;102041.68;;;25.22;40.97
66742;BME280;53654;54.152;19.432;2023-08-12T09:05:16;102041.01;;;25.35;40.26
66742;BME280;53654;54.152;19.432;2023-08-12T09:07:45;102036.91;;;25.42;39.39
66742;BME280;53654;54.152;19.432;2023-08-12T09:10:14;102033.08;;;25.48;39.34
66742;BME280;53654;54.152;19.432;2023-08-12T09:12:45;102033.80;;;25.55;39.44
66742;BME280;53654;54.152;19.432;2023-08-12T09:15:16;102030.48;;;25.67;39.26
66742;BME280;53654;54.152;19.432;2023-08-12T09:17:47;102031.60;;;25.80;39.16
66742;BME280;53654;54.152;19.432;2023-08-12T09:20:15;102030.74;;;25.89;39.00
66742;BME280;53654;54.152;19.432;2023-08-12T09:22:44;102027.94;;;25.99;38.82
66742;BME280;53654;54.152;19.432;2023-08-12T09:25:20;102024.70;;;26.13;40.00
66742;BME280;53654;54.152;19.432;2023-08-12T09:27:49;102034.51;;;26.27;38.68
66742;BME280;53654;54.152;19.432;2023-08-12T09:30:17;102035.80;;;26.37;38.06
66742;BME280;53654;54.152;19.432;2023-08-12T09:33:01;102032.88;;;26.41;37.29
66742;BME280;53654;54.152;19.432;2023-08-12T09:35:39;102030.30;;;26.36;37.75
66742;BME280;53654;54.152;19.432;2023-08-12T09:38:11;102029.64;;;26.35;37.53
66742;BME280;53654;54.152;19.432;2023-08-12T09:40:40;102022.66;;;26.38;37.50
66742;BME280;53654;54.152;19.432;2023-08-12T09:43:09;102015.83;;;26.39;37.88
66742;BME280;53654;54.152;19.432;2023-08-12T09:45:41;102015.48;;;26.45;37.90
66742;BME280;53654;54.152;19.432;2023-08-12T09:48:09;102012.90;;;26.53;37.86
66742;BME280;53654;54.152;19.432;2023-08-12T09:50:38;102008.34;;;26.64;37.70
66742;BME280;53654;54.152;19.432;2023-08-12T09:53:06;102002.27;;;26.80;38.78
66742;BME280;53654;54.152;19.432;2023-08-12T09:55:35;101992.54;;;26.93;38.05
66742;BME280;53654;54.152;19.432;2023-08-12T09:58:06;101992.17;;;27.06;37.24
66742;BME280;53654;54.152;19.432;2023-08-12T10:00:37;101994.73;;;27.20;37.55
66742;BME280;53654;54.152;19.432;2023-08-12T10:03:06;101994.20;;;27.33;37.64
66742;BME280;53654;54.152;19.432;2023-08-12T10:05:34;101987.83;;;27.40;36.52
66742;BME280;53654;54.152;19.432;2023-08-12T10:08:03;101985.11;;;27.47;36.06
66742;BME280;53654;54.152;19.432;2023-08-12T10:10:34;101981.98;;;27.48;35.98
66742;BME280;53654;54.152;19.432;2023-08-12T10:13:03;101985.08;;;27.53;35.81
66742;BME280;53654;54.152;19.432;2023-08-12T10:15:36;101981.17;;;27.59;37.07
66742;BME280;53654;54.152;19.432;2023-08-12T10:18:07;101981.61;;;27.66;36.61
66742;BME280;53654;54.152;19.432;2023-08-12T10:20:39;101981.80;;;27.66;35.73
66742;BME280;53654;54.152;19.432;2023-08-12T10:23:16;101981.80;;;27.63;35.66
66742;BME280;53654;54.152;19.432;2023-08-12T10:25:47;101980.66;;;27.64;35.85
66742;BME280;53654;54.152;19.432;2023-08-12T10:28:19;101980.62;;;27.58;36.31
66742;BME280;53654;54.152;19.432;2023-08-12T10:30:47;101980.55;;;27.60;36.34
66742;BME280;53654;54.152;19.432;2023-08-12T10:33:16;101979.61;;;27.61;35.92
66742;BME280;53654;54.152;19.432;2023-08-12T10:35:46;101979.53;;;27.59;35.76
66742;BME280;53654;54.152;19.432;2023-08-12T10:38:20;101979.13;;;27.54;36.05
66742;BME280;53654;54.152;19.432;2023-08-12T10:40:48;101981.02;;;27.55;37.08
66742;BME280;53654;54.152;19.432;2023-08-12T10:43:16;101975.23;;;27.53;37.08
66742;BME280;53654;54.152;19.432;2023-08-12T10:45:52;101971.24;;;27.42;37.01
66742;BME280;53654;54.152;19.432;2023-08-12T10:48:23;101975.19;;;27.36;36.80
66742;BME280;53654;54.152;19.432;2023-08-12T10:50:55;101971.16;;;27.28;37.19
66742;BME280;53654;54.152;19.432;2023-08-12T10:53:31;101966.84;;;27.19;36.78
66742;BME280;53654;54.152;19.432;2023-08-12T10:56:04;101962.55;;;27.16;38.69
66742;BME280;53654;54.152;19.432;2023-08-12T10:58:45;101961.80;;;27.17;38.41
66742;BME280;53654;54.152;19.432;2023-08-12T11:01:17;101954.29;;;27.14;38.27
66742;BME280;53654;54.152;19.432;2023-08-12T11:03:48;101955.84;;;27.12;38.95
66742;BME280;53654;54.152;19.432;2023-08-12T11:06:19;101956.36;;;27.06;37.86
66742;BME280;53654;54.152;19.432;2023-08-12T11:08:53;101953.92;;;26.95;37.18
66742;BME280;53654;54.152;19.432;2023-08-12T11:11:23;101955.85;;;26.80;37.31
66742;BME280;53654;54.152;19.432;2023-08-12T11:13:57;101954.94;;;26.68;37.11
66742;BME280;53654;54.152;19.432;2023-08-12T11:16:35;101949.29;;;26.63;37.88
66742;BME280;53654;54.152;19.432;2023-08-12T11:19:04;101944.39;;;26.65;38.69
66742;BME280;53654;54.152;19.432;2023-08-12T11:21:36;101949.03;;;26.68;39.98
66742;BME280;53654;54.152;19.432;2023-08-12T11:24:05;101945.69;;;26.74;38.68
66742;BME280;53654;54.152;19.432;2023-08-12T11:26:33;101950.89;;;26.74;37.81
66742;BME280;53654;54.152;19.432;2023-08-12T11:29:08;101946.75;;;26.68;37.82
66742;BME280;53654;54.152;19.432;2023-08-12T11:31:36;101944.75;;;26.64;39.03
66742;BME280;53654;54.152;19.432;2023-08-12T11:34:05;101939.86;;;26.66;39.47
66742;BME280;53654;54.152;19.432;2023-08-12T11:36:33;101935.48;;;26.64;39.08
66742;BME280;53654;54.152;19.432;2023-08-12T11:39:02;101931.31;;;26.65;39.50
66742;BME280;53654;54.152;19.432;2023-08-12T11:41:30;101932.06;;;26.68;39.07
66742;BME280;53654;54.152;19.432;2023-08-12T11:44:01;101926.09;;;26.69;38.54
66742;BME280;53654;54.152;19.432;2023-08-12T11:46:33;101921.55;;;26.70;38.72
66742;BME280;53654;54.152;19.432;2023-08-12T11:49:01;101917.69;;;26.69;38.86
66742;BME280;53654;54.152;19.432;2023-08-12T11:51:29;101911.92;;;26.66;37.88
66742;BME280;53654;54.152;19.432;2023-08-12T11:53:57;101910.98;;;26.64;38.22
66742;BME280;53654;54.152;19.432;2023-08-12T11:56:26;101901.70;;;26.54;37.88
66742;BME280;53654;54.152;19.432;2023-08-12T11:58:54;101902.91;;;26.52;38.71
66742;BME280;53654;54.152;19.432;2023-08-12T12:01:22;101903.26;;;26.52;39.29
66742;BME280;53654;54.152;19.432;2023-08-12T12:03:52;101903.07;;;26.52;38.39
66742;BME280;53654;54.152;19.432;2023-08-12T12:06:31;101899.12;;;26.52;38.73
66742;BME280;53654;54.152;19.432;2023-08-12T12:09:04;101903.69;;;26.54;38.33
66742;BME280;53654;54.152;19.432;2023-08-12T12:11:33;101901.13;;;26.55;38.74
66742;BME280;53654;54.152;19.432;2023-08-12T12:14:06;101903.10;;;26.55;38.57
66742;BME280;53654;54.152;19.432;2023-08-12T12:19:24;101901.37;;;26.47;38.32
66742;BME280;53654;54.152;19.432;2023-08-12T12:21:53;101899.45;;;26.43;38.58
66742;BME280;53654;54.152;19.432;2023-08-12T12:24:21;101898.13;;;26.45;38.89
66742;BME280;53654;54.152;19.432;2023-08-12T12:26:49;101897.80;;;26.47;38.78
66742;BME280;53654;54.152;19.432;2023-08-12T12:29:17;101892.39;;;26.48;38.76
66742;BME280;53654;54.152;19.432;2023-08-12T12:31:48;101891.91;;;26.50;39.18
66742;BME280;53654;54.152;19.432;2023-08-12T12:34:17;101890.59;;;26.51;39.03
66742;BME280;53654;54.152;19.432;2023-08-12T12:36:48;101886.98;;;26.52;39.59
66742;BME280;53654;54.152;19.432;2023-08-12T12:39:17;101885.25;;;26.54;39.55
66742;BME280;53654;54.152;19.432;2023-08-12T12:41:46;101884.38;;;26.56;39.58
66742;BME280;53654;54.152;19.432;2023-08-12T12:44:16;101884.11;;;26.55;38.67
66742;BME280;53654;54.152;19.432;2023-08-12T12:46:47;101880.67;;;26.52;38.40
66742;BME280;53654;54.152;19.432;2023-08-12T12:49:16;101876.59;;;26.52;38.83
66742;BME280;53654;54.152;19.432;2023-08-12T12:51:46;101877.48;;;26.49;38.70
66742;BME280;53654;54.152;19.432;2023-08-12T12:54:17;101873.96;;;26.48;38.60
66742;BME280;53654;54.152;19.432;2023-08-12T12:56:47;101871.58;;;26.46;38.27
66742;BME280;53654;54.152;19.432;2023-08-12T12:59:15;101874.30;;;26.42;38.42